Главная страница
METAR-TAF:

METAR-TAF

Аэропорты :

Маради, Нигер

широта: 13-28N, долгота: 007-05E, высота над уровнем моря: 372 м

Текущие метеонаблюдения

Эта сводка был подготовлена 3 часа и 2 минут назад, в 18:00 UTC
Ветер 6 Узел от западный-юго-западный
Температура 37°C
Влажность 35%
Давление 1007 hPa
Видимость 10 км и более
небольшая облачность на высоте 4000 фута, Кучево-дождевые.

METAR: DRRM 191800Z 24006KT 9999 FEW040CB 37/19 Q1007

Время: 22:02 (21:02 UTC)


TAF: отсутствует

Метеонаблюдения и прогнозы для более 4000 аэропортов (сводки METAR и TAF).

Имеющиеся станции представлены на карте желтыми и красными точками.

Чтобы увидеть название станции, наведите на нее мышь.

Затем щелкните, чтобы увидеть метеонаблюдения и метеопрогнозы.

Управление картой: чтобы увеличить масштаб, щелкните зеленые кнопки с черным крестиком; чтобы уменьшить масштаб, щелкните зеленую кнопку с тире; для просмотра соседних карт щелкайте зеленые стрелки.


METAR-TAF: